Time;durP1;ratioP1;P1;durP2;ratioP2;P2;SDS_P1;SDS_P2;PMS_P1;PMS_P2;Temp;Humidity;BMP_temperature;BMP_pressure;BME280_temperature;BME280_humidity;BME280_pressure;Samples;Min_cycle;Max_cycle;Signal;HPM_P1;HPM_P2
2023/02/23 00:01:14;;;;;;;7.50;4.20;;;19.20;51.10;;;;;;5033374;28;20458;-69
2023/02/23 00:03:40;;;;;;;5.20;4.00;;;19.20;51.10;;;;;;5033432;28;20434;-69
2023/02/23 00:06:07;;;;;;;5.77;4.50;;;19.20;51.10;;;;;;5033275;28;20469;-67
2023/02/23 00:08:35;;;;;;;5.53;4.63;;;19.20;51.10;;;;;;5033341;28;20925;-69
2023/02/23 00:11:05;;;;;;;6.23;4.47;;;19.20;51.10;;;;;;5016015;28;20409;-68
2023/02/23 00:13:36;;;;;;;4.73;4.33;;;19.20;51.10;;;;;;5033604;28;20414;-68
2023/02/23 00:16:12;;;;;;;4.97;4.47;;;19.10;51.00;;;;;;5033066;28;20922;-67
2023/02/23 00:18:44;;;;;;;4.77;4.17;;;19.20;51.10;;;;;;5016298;28;20414;-67
2023/02/23 00:21:24;;;;;;;5.50;4.57;;;19.10;51.10;;;;;;5033292;28;20403;-68
2023/02/23 00:24:14;;;;;;;5.13;4.63;;;19.10;51.00;;;;;;5033096;28;20430;-67
2023/02/23 00:26:41;;;;;;;5.70;4.93;;;19.10;51.00;;;;;;5033269;28;20473;-70
2023/02/23 00:29:25;;;;;;;5.40;4.20;;;19.10;51.00;;;;;;5032883;28;20411;-69
2023/02/23 00:31:51;;;;;;;4.80;4.30;;;19.10;51.10;;;;;;5033525;28;20921;-68
2023/02/23 00:34:22;;;;;;;5.30;4.63;;;19.10;51.00;;;;;;5015069;28;20442;-70
2023/02/23 00:36:53;;;;;;;5.10;4.60;;;19.10;51.00;;;;;;5033083;28;20410;-70
2023/02/23 00:39:25;;;;;;;4.47;3.93;;;19.10;51.00;;;;;;5033099;28;20416;-70
2023/02/23 00:41:51;;;;;;;5.97;4.27;;;19.10;51.10;;;;;;5033051;28;20442;-69
2023/02/23 00:44:17;;;;;;;6.07;4.40;;;19.10;51.00;;;;;;5032931;28;20473;-69
2023/02/23 00:46:44;;;;;;;5.20;4.60;;;19.10;51.00;;;;;;5032939;28;20399;-69
2023/02/23 00:49:12;;;;;;;6.10;4.40;;;19.10;51.00;;;;;;5032768;28;20422;-69
2023/02/23 00:51:38;;;;;;;6.40;5.63;;;19.10;51.00;;;;;;5034247;28;20413;-69
2023/02/23 00:54:05;;;;;;;7.80;4.77;;;19.10;51.00;;;;;;5036685;28;20446;-68
2023/02/23 00:56:31;;;;;;;5.13;4.20;;;19.00;50.90;;;;;;5036692;28;20449;-70
2023/02/23 00:58:56;;;;;;;5.53;3.93;;;19.10;50.90;;;;;;5036674;28;20510;-72
2023/02/23 01:01:23;;;;;;;6.10;4.60;;;19.10;50.90;;;;;;5036721;28;20411;-68
2023/02/23 01:03:48;;;;;;;4.50;4.10;;;19.00;50.80;;;;;;5036542;28;20196;-69
2023/02/23 01:06:16;;;;;;;6.03;4.80;;;19.00;50.90;;;;;;5036367;28;20474;-70
2023/02/23 01:08:49;;;;;;;4.20;3.80;;;19.00;50.80;;;;;;5036488;28;20178;-69
2023/02/23 01:11:22;;;;;;;4.20;3.60;;;19.00;50.80;;;;;;5036598;28;20399;-70
2023/02/23 01:13:50;;;;;;;5.33;4.00;;;19.00;50.90;;;;;;5036441;28;20438;-69
2023/02/23 01:16:19;;;;;;;5.23;4.73;;;19.00;50.80;;;;;;5036425;28;20414;-71
2023/02/23 01:18:45;;;;;;;6.00;4.20;;;19.00;50.80;;;;;;5036471;28;20422;-69
2023/02/23 01:21:17;;;;;;;5.90;4.97;;;19.00;50.80;;;;;;5036333;28;20410;-69
2023/02/23 01:23:43;;;;;;;4.43;4.00;;;19.00;50.80;;;;;;5036289;28;20521;-69
2023/02/23 01:26:22;;;;;;;5.53;5.03;;;19.00;50.80;;;;;;5036189;28;20549;-70
2023/02/23 01:28:53;;;;;;;4.37;3.97;;;19.00;50.70;;;;;;5036347;28;20171;-68
2023/02/23 01:31:20;;;;;;;5.40;4.63;;;19.00;50.70;;;;;;5036365;28;20414;-69
2023/02/23 01:33:45;;;;;;;5.43;4.90;;;19.00;50.70;;;;;;5036247;28;20426;-70
2023/02/23 01:36:14;;;;;;;6.00;4.50;;;19.00;50.70;;;;;;5036140;28;20706;-68
2023/02/23 01:38:40;;;;;;;4.10;3.70;;;19.00;50.70;;;;;;5036219;28;20536;-70
2023/02/23 01:41:06;;;;;;;5.17;4.23;;;18.90;50.60;;;;;;5036038;28;20414;-69
2023/02/23 01:43:32;;;;;;;4.57;4.13;;;19.00;50.70;;;;;;5035846;28;20579;-70
2023/02/23 01:45:58;;;;;;;5.23;4.60;;;18.90;50.60;;;;;;5077043;22;20238;-72
2023/02/23 01:48:34;;;;;;;4.93;4.43;;;18.90;50.60;;;;;;5055903;28;20406;-73
2023/02/23 01:51:09;;;;;;;4.80;3.90;;;18.90;50.60;;;;;;5056249;28;20944;-72
2023/02/23 01:53:38;;;;;;;5.37;4.73;;;18.90;50.60;;;;;;5056021;28;20386;-73
2023/02/23 01:56:12;;;;;;;5.70;5.10;;;18.90;50.60;;;;;;5055557;28;20483;-71
2023/02/23 01:58:42;;;;;;;5.00;4.60;;;18.90;50.60;;;;;;5055913;28;20468;-73
2023/02/23 02:01:12;;;;;;;5.00;4.60;;;18.90;50.60;;;;;;5055841;28;20403;-74
2023/02/23 02:03:47;;;;;;;6.13;5.53;;;18.90;50.60;;;;;;5054840;28;20412;-74
2023/02/23 02:06:15;;;;;;;4.90;4.40;;;18.90;50.60;;;;;;5055649;28;20498;-73
2023/02/23 02:08:46;;;;;;;5.27;4.30;;;18.90;50.60;;;;;;5055234;28;20410;-73
2023/02/23 02:14:11;;;;;;;4.93;4.53;;;18.90;50.50;;;;;;5055930;28;20393;-74
2023/02/23 02:16:45;;;;;;;5.70;4.60;;;18.90;50.50;;;;;;5037470;28;20551;-73
2023/02/23 02:19:32;;;;;;;5.03;4.47;;;18.90;50.50;;;;;;5055235;28;20403;-74
2023/02/23 02:22:47;;;;;;;5.00;4.53;;;18.90;50.50;;;;;;5055541;28;20394;-73
2023/02/23 02:25:30;;;;;;;4.60;3.80;;;18.80;50.50;;;;;;5034173;28;20457;-73
2023/02/23 02:28:23;;;;;;;4.27;3.73;;;18.80;50.50;;;;;;5055363;28;20398;-73
2023/02/23 02:31:19;;;;;;;4.77;4.37;;;18.80;50.50;;;;;;5055463;28;20397;-74
2023/02/23 02:34:12;;;;;;;4.53;3.93;;;18.80;50.50;;;;;;5054962;28;20893;-75
2023/02/23 02:36:50;;;;;;;4.73;4.33;;;18.80;50.50;;;;;;5055207;28;20484;-73
2023/02/23 02:39:35;;;;;;;5.73;4.50;;;18.80;50.50;;;;;;5054935;28;20382;-74
2023/02/23 02:42:09;;;;;;;5.67;4.53;;;18.80;50.50;;;;;;5055168;28;20765;-73
2023/02/23 02:44:57;;;;;;;4.87;4.37;;;18.80;50.50;;;;;;5054683;28;20464;-73
2023/02/23 02:47:36;;;;;;;5.10;3.80;;;18.80;50.40;;;;;;5054732;28;20386;-73
2023/02/23 02:50:30;;;;;;;5.13;4.20;;;18.80;50.40;;;;;;5054836;28;20448;-72
2023/02/23 02:53:09;;;;;;;4.20;3.80;;;18.80;50.40;;;;;;5054787;28;20447;-73
2023/02/23 02:55:40;;;;;;;6.30;4.90;;;18.70;50.30;;;;;;5054865;28;20439;-72
2023/02/23 02:58:07;;;;;;;5.00;4.50;;;18.70;50.30;;;;;;5054602;28;20947;-73
2023/02/23 04:19:24;;;;;;;6.80;4.20;;;18.60;50.10;;;;;;5037582;28;20402;-72
2023/02/23 04:21:50;;;;;;;4.80;4.00;;;18.60;50.00;;;;;;5037113;28;20425;-72
2023/02/23 04:24:16;;;;;;;5.10;4.60;;;18.60;50.00;;;;;;5036051;28;20460;-72
2023/02/23 04:26:41;;;;;;;4.43;4.07;;;18.60;50.00;;;;;;5053980;28;20171;-71
2023/02/23 04:29:07;;;;;;;6.00;4.80;;;18.60;50.00;;;;;;5053839;28;20175;-72
2023/02/23 04:31:33;;;;;;;4.80;4.40;;;18.60;50.00;;;;;;5053486;28;20698;-73
2023/02/23 04:33:58;;;;;;;5.37;4.60;;;18.60;50.00;;;;;;5054097;28;20179;-73
2023/02/23 04:36:25;;;;;;;4.70;3.70;;;18.60;49.90;;;;;;5053230;28;20262;-73
2023/02/23 04:38:51;;;;;;;5.50;4.40;;;18.60;49.90;;;;;;5053186;28;20186;-72
2023/02/23 04:41:17;;;;;;;4.20;3.80;;;18.60;49.90;;;;;;5053154;28;20418;-73
2023/02/23 04:43:42;;;;;;;9.00;5.37;;;18.60;49.90;;;;;;5053040;28;20171;-70
2023/02/23 04:46:08;;;;;;;4.90;3.97;;;18.60;49.80;;;;;;5052719;28;20465;-69
2023/02/23 04:48:34;;;;;;;5.20;4.70;;;18.60;49.80;;;;;;5053190;28;20686;-68
2023/02/23 04:50:59;;;;;;;4.87;4.40;;;18.60;49.80;;;;;;5053177;28;20178;-68
2023/02/23 04:53:26;;;;;;;5.17;4.67;;;18.60;49.80;;;;;;5052844;28;20178;-70
2023/02/23 04:55:51;;;;;;;5.00;4.53;;;18.60;49.80;;;;;;5053132;28;20735;-69
2023/02/23 04:58:17;;;;;;;5.10;4.50;;;18.60;49.80;;;;;;5053087;28;20445;-69
2023/02/23 05:00:42;;;;;;;5.50;4.20;;;18.60;49.80;;;;;;5052812;28;20183;-69
2023/02/23 05:03:08;;;;;;;4.70;4.30;;;18.60;49.80;;;;;;5053035;28;20183;-68
2023/02/23 05:05:34;;;;;;;7.13;4.40;;;18.60;49.80;;;;;;5053074;28;20781;-68
2023/02/23 05:07:59;;;;;;;4.50;3.83;;;18.50;49.70;;;;;;5053050;28;20171;-67
2023/02/23 05:10:25;;;;;;;5.23;4.70;;;18.60;49.70;;;;;;5053063;28;20175;-67
2023/02/23 05:12:51;;;;;;;5.40;4.33;;;18.50;50.20;;;;;;5052695;28;20167;-68
2023/02/23 05:15:17;;;;;;;5.10;4.60;;;18.50;49.60;;;;;;5052610;28;20865;-69
2023/02/23 05:17:42;;;;;;;6.33;4.93;;;18.50;49.60;;;;;;5052844;28;20176;-68
2023/02/23 05:20:10;;;;;;;5.77;4.80;;;18.50;49.60;;;;;;5052915;28;20646;-68
2023/02/23 05:22:35;;;;;;;4.90;3.93;;;18.50;49.60;;;;;;5053259;28;20550;-67
2023/02/23 05:25:03;;;;;;;4.63;4.13;;;18.50;49.60;;;;;;5052672;28;20461;-67
2023/02/23 05:27:29;;;;;;;6.27;4.80;;;18.50;49.60;;;;;;5052867;28;20235;-68
2023/02/23 05:29:54;;;;;;;6.33;4.80;;;18.50;49.60;;;;;;5052847;28;20409;-69
2023/02/23 05:32:20;;;;;;;5.33;4.30;;;18.50;49.60;;;;;;5052621;28;20417;-68
2023/02/23 05:34:46;;;;;;;5.20;4.70;;;18.50;49.60;;;;;;5052581;28;20206;-68
2023/02/23 05:37:12;;;;;;;5.77;5.17;;;18.50;49.60;;;;;;5052641;28;20425;-69
2023/02/23 05:39:38;;;;;;;5.03;4.53;;;18.50;49.60;;;;;;5055597;28;20186;-69
2023/02/23 05:42:04;;;;;;;5.50;4.80;;;18.50;49.60;;;;;;5056268;28;20901;-69
2023/02/23 05:44:29;;;;;;;9.90;5.13;;;18.50;49.60;;;;;;5055797;28;20213;-70
2023/02/23 05:46:55;;;;;;;6.50;4.57;;;18.50;49.50;;;;;;5055812;28;20175;-69
2023/02/23 05:49:21;;;;;;;4.53;3.67;;;18.50;49.50;;;;;;5055834;28;20171;-70
2023/02/23 05:51:47;;;;;;;6.77;4.50;;;18.50;49.50;;;;;;5055780;28;20171;-70
2023/02/23 05:54:12;;;;;;;5.20;4.70;;;18.50;49.50;;;;;;5055737;28;20532;-69
2023/02/23 05:56:38;;;;;;;5.00;4.57;;;18.50;49.50;;;;;;5056105;28;20175;-69
2023/02/23 05:59:07;;;;;;;4.97;4.47;;;18.50;49.50;;;;;;5055810;28;20171;-69
2023/02/23 06:01:33;;;;;;;5.93;4.90;;;18.50;49.50;;;;;;5055957;28;20406;-69
2023/02/23 06:03:59;;;;;;;4.33;3.93;;;18.50;49.50;;;;;;5056022;28;20777;-69
2023/02/23 06:06:25;;;;;;;4.27;3.87;;;18.50;49.50;;;;;;5055817;28;20476;-69
2023/02/23 06:08:51;;;;;;;4.63;4.23;;;18.40;49.40;;;;;;5037626;28;20179;-70
2023/02/23 06:11:17;;;;;;;5.03;4.53;;;18.50;49.50;;;;;;5055594;28;20468;-70
2023/02/23 06:13:43;;;;;;;4.83;4.27;;;18.50;49.50;;;;;;5055442;28;20472;-68
2023/02/23 06:16:09;;;;;;;4.90;4.47;;;18.50;49.50;;;;;;5055457;28;20535;-69
2023/02/23 06:18:35;;;;;;;6.47;4.90;;;18.50;49.50;;;;;;5055619;28;20487;-68
2023/02/23 06:21:02;;;;;;;5.27;4.40;;;18.40;49.40;;;;;;5055254;28;20546;-68
2023/02/23 06:23:29;;;;;;;5.63;4.37;;;18.40;49.40;;;;;;5055386;28;20424;-69
2023/02/23 06:25:54;;;;;;;4.87;4.33;;;18.40;49.40;;;;;;5055291;28;20893;-69
2023/02/23 06:28:20;;;;;;;4.93;4.10;;;18.40;49.40;;;;;;5055211;28;20438;-69
2023/02/23 06:30:47;;;;;;;6.50;5.23;;;18.40;49.40;;;;;;5037158;28;20183;-69
2023/02/23 06:33:13;;;;;;;5.07;4.57;;;18.40;49.40;;;;;;5055202;28;20167;-69
2023/02/23 06:35:38;;;;;;;5.00;4.50;;;18.40;49.40;;;;;;5055063;28;20866;-69
2023/02/23 06:38:06;;;;;;;6.00;4.40;;;18.40;49.50;;;;;;5037463;28;20175;-69
2023/02/23 06:40:32;;;;;;;7.20;4.53;;;18.40;49.50;;;;;;5055651;28;20206;-70
2023/02/23 06:42:59;;;;;;;9.77;7.07;;;18.40;49.70;;;;;;5055448;28;20420;-70
2023/02/23 06:45:25;;;;;;;10.57;8.67;;;18.30;49.30;;;;;;5036574;28;20477;-71
2023/02/23 06:47:52;;;;;;;8.07;7.27;;;18.30;49.00;;;;;;5055466;28;20497;-70
2023/02/23 06:50:18;;;;;;;7.57;6.77;;;18.10;49.10;;;;;;5054547;28;20410;-70
2023/02/23 06:52:44;;;;;;;9.10;6.60;;;18.00;49.50;;;;;;5054686;28;20974;-69
2023/02/23 06:55:12;;;;;;;8.57;7.63;;;18.00;49.70;;;;;;5054567;28;20233;-69
2023/02/23 06:57:38;;;;;;;8.47;6.70;;;18.00;49.80;;;;;;5054583;28;20916;-70
2023/02/23 07:00:04;;;;;;;7.33;6.10;;;18.00;50.10;;;;;;5054750;28;20445;-70
2023/02/23 07:02:30;;;;;;;11.73;6.00;;;18.00;50.20;;;;;;5054732;28;20471;-69
2023/02/23 07:04:57;;;;;;;7.87;6.40;;;18.10;50.10;;;;;;5054313;28;20479;-70
2023/02/23 07:07:23;;;;;;;7.17;6.13;;;18.10;50.20;;;;;;5054250;28;20417;-70
2023/02/23 07:09:48;;;;;;;12.10;7.90;;;18.10;50.30;;;;;;5054309;28;20414;-70
2023/02/23 07:12:14;;;;;;;11.37;7.77;;;18.10;50.00;;;;;;5054554;28;20175;-71
2023/02/23 07:14:40;;;;;;;11.10;7.73;;;18.10;49.90;;;;;;5054217;28;20202;-71
2023/02/23 07:17:06;;;;;;;8.10;6.40;;;18.00;49.90;;;;;;5054459;28;20175;-70
2023/02/23 07:19:32;;;;;;;9.23;6.30;;;18.10;50.00;;;;;;5054431;28;20183;-71
2023/02/23 07:21:58;;;;;;;8.47;6.07;;;18.00;50.20;;;;;;5054465;28;20456;-70
2023/02/23 07:24:23;;;;;;;10.17;5.70;;;18.10;50.30;;;;;;5053892;28;20520;-71
2023/02/23 07:26:50;;;;;;;6.97;5.80;;;18.10;50.20;;;;;;5054113;28;20409;-71
2023/02/23 07:29:17;;;;;;;13.60;6.63;;;18.20;50.20;;;;;;5054221;28;20179;-70
2023/02/23 07:31:43;;;;;;;7.27;6.57;;;18.30;50.10;;;;;;5054012;28;20908;-70
2023/02/23 07:34:09;;;;;;;7.83;6.03;;;18.30;50.00;;;;;;5053861;28;20430;-71
2023/02/23 07:36:35;;;;;;;7.30;6.13;;;18.40;49.90;;;;;;5053981;28;20179;-70
2023/02/23 07:39:03;;;;;;;7.43;5.63;;;18.40;49.80;;;;;;5054187;28;20175;-69
2023/02/23 07:41:29;;;;;;;7.67;5.77;;;18.50;49.80;;;;;;5054045;28;20409;-69
2023/02/23 07:43:55;;;;;;;6.37;5.47;;;18.50;49.90;;;;;;5053372;28;20417;-68
2023/02/23 07:46:20;;;;;;;7.03;5.50;;;18.60;50.00;;;;;;5053939;28;20203;-68
2023/02/23 07:48:46;;;;;;;5.20;4.70;;;18.60;49.90;;;;;;5053727;28;20534;-68
2023/02/23 07:51:14;;;;;;;6.27;5.40;;;18.70;49.90;;;;;;5053659;28;20217;-69
2023/02/23 07:53:40;;;;;;;6.17;5.03;;;18.80;49.90;;;;;;5053804;28;20214;-69
2023/02/23 07:56:10;;;;;;;6.43;5.27;;;18.80;49.80;;;;;;5053968;28;20948;-70
2023/02/23 07:58:40;;;;;;;8.07;5.37;;;18.80;49.60;;;;;;5054396;28;20413;-68
2023/02/23 08:01:06;;;;;;;6.17;5.57;;;18.80;49.70;;;;;;5059328;22;20548;-71
2023/02/23 08:03:32;;;;;;;5.40;4.90;;;18.80;49.90;;;;;;5033151;28;20465;-70
2023/02/23 08:05:57;;;;;;;5.77;4.47;;;18.80;50.00;;;;;;5032885;28;20492;-70
2023/02/23 08:08:24;;;;;;;6.90;5.37;;;18.90;49.90;;;;;;5032889;28;20418;-71
2023/02/23 08:10:49;;;;;;;6.77;4.50;;;18.90;49.60;;;;;;5015162;28;20249;-71
2023/02/23 08:13:15;;;;;;;5.50;4.87;;;19.00;49.60;;;;;;5032928;28;20966;-70
2023/02/23 08:15:42;;;;;;;6.83;5.20;;;19.00;49.60;;;;;;5032893;28;20271;-71
2023/02/23 08:18:08;;;;;;;7.47;4.70;;;19.00;49.50;;;;;;5033146;28;20865;-71
2023/02/23 08:20:33;;;;;;;7.70;5.10;;;19.00;49.60;;;;;;5033144;28;20437;-72
2023/02/23 08:22:59;;;;;;;7.33;4.87;;;19.00;49.80;;;;;;5032942;28;20175;-72
2023/02/23 08:25:28;;;;;;;8.13;5.10;;;19.00;49.90;;;;;;5032864;28;20202;-72
2023/02/23 08:27:54;;;;;;;6.20;4.77;;;19.00;49.90;;;;;;5032844;28;20551;-72
2023/02/23 08:30:21;;;;;;;5.57;4.43;;;19.00;49.80;;;;;;5033024;28;20418;-72
2023/02/23 08:32:47;;;;;;;5.40;4.60;;;19.00;49.90;;;;;;5033272;28;20535;-72
2023/02/23 08:35:14;;;;;;;7.33;4.60;;;19.00;49.80;;;;;;5033232;28;20497;-71
2023/02/23 08:37:40;;;;;;;5.73;4.87;;;19.00;49.70;;;;;;5033184;28;20468;-72
2023/02/23 08:40:07;;;;;;;5.93;4.90;;;19.00;49.60;;;;;;5033971;28;21048;-71
2023/02/23 08:42:33;;;;;;;4.40;4.00;;;19.00;49.70;;;;;;5033472;28;20438;-72
2023/02/23 08:45:00;;;;;;;7.07;4.80;;;19.00;49.70;;;;;;5033108;28;20481;-71
2023/02/23 08:47:26;;;;;;;5.43;4.33;;;19.00;49.80;;;;;;5032977;28;20640;-73
2023/02/23 08:49:53;;;;;;;7.03;4.80;;;19.00;49.80;;;;;;5032810;28;20456;-70
2023/02/23 08:52:19;;;;;;;8.70;5.60;;;19.00;49.70;;;;;;5032976;28;20414;-71
2023/02/23 08:54:45;;;;;;;7.17;5.10;;;19.00;50.00;;;;;;5032674;28;20489;-71
2023/02/23 08:57:11;;;;;;;8.70;4.37;;;19.00;50.20;;;;;;5033456;28;20867;-70
2023/02/23 08:59:38;;;;;;;7.07;4.67;;;19.00;50.30;;;;;;5014507;28;20793;-70
2023/02/23 09:02:04;;;;;;;6.70;5.00;;;19.10;50.40;;;;;;5032807;28;20835;-71
2023/02/23 09:04:34;;;;;;;5.77;4.97;;;19.10;50.40;;;;;;5014814;28;20446;-71
2023/02/23 09:07:00;;;;;;;7.43;4.40;;;19.10;50.30;;;;;;5032367;28;20407;-70
2023/02/23 09:09:26;;;;;;;8.90;5.13;;;19.20;50.20;;;;;;5032450;28;20426;-71
2023/02/23 09:11:52;;;;;;;9.27;5.37;;;19.20;50.10;;;;;;5014542;28;20507;-71
2023/02/23 09:14:18;;;;;;;6.10;4.90;;;19.20;50.00;;;;;;5034854;28;20402;-71
2023/02/23 09:16:44;;;;;;;5.90;5.30;;;19.10;50.10;;;;;;5036192;28;20172;-71
2023/02/23 09:19:10;;;;;;;7.03;5.70;;;19.20;50.00;;;;;;5035947;28;20497;-74
2023/02/23 09:21:36;;;;;;;7.90;5.57;;;19.20;50.00;;;;;;5035960;28;20485;-72
2023/02/23 09:24:01;;;;;;;6.40;4.80;;;19.20;50.00;;;;;;5035991;28;20179;-71
2023/02/23 09:26:28;;;;;;;6.87;4.93;;;19.20;50.10;;;;;;5035865;28;20461;-71
2023/02/23 09:28:55;;;;;;;4.60;4.20;;;19.20;50.00;;;;;;5035880;28;20505;-71
2023/02/23 09:31:22;;;;;;;6.23;4.53;;;19.20;49.90;;;;;;5036213;28;20509;-71
2023/02/23 09:33:49;;;;;;;5.87;4.67;;;19.20;49.90;;;;;;5036122;28;20869;-72
2023/02/23 09:36:21;;;;;;;6.70;4.57;;;19.20;50.00;;;;;;5036194;28;20774;-69
2023/02/23 09:38:51;;;;;;;5.20;4.70;;;19.20;49.80;;;;;;5036131;28;20413;-70
2023/02/23 09:41:26;;;;;;;5.10;4.60;;;19.10;49.60;;;;;;5035836;28;20933;-71
2023/02/23 09:44:20;;;;;;;5.70;5.03;;;19.10;49.60;;;;;;5035902;28;20505;-69
2023/02/23 09:47:07;;;;;;;5.27;4.77;;;19.10;49.60;;;;;;5035767;28;20411;-69
2023/02/23 09:49:38;;;;;;;5.83;4.40;;;19.10;49.70;;;;;;5035737;28;20925;-69
2023/02/23 09:52:09;;;;;;;6.10;4.97;;;19.10;49.70;;;;;;5035707;28;20398;-69
2023/02/23 09:54:35;;;;;;;6.03;5.43;;;19.10;49.60;;;;;;5035642;28;20407;-70
2023/02/23 09:57:05;;;;;;;5.70;4.30;;;19.10;49.60;;;;;;5035369;28;20406;-70
2023/02/23 09:59:31;;;;;;;5.70;4.97;;;19.10;49.50;;;;;;5035134;28;20967;-70
2023/02/23 10:02:08;;;;;;;5.70;5.23;;;19.10;49.50;;;;;;5035575;28;20410;-69
2023/02/23 10:04:48;;;;;;;5.10;4.20;;;19.10;49.50;;;;;;5035194;28;20218;-69
2023/02/23 10:07:44;;;;;;;5.57;4.63;;;19.10;49.50;;;;;;5035223;28;20407;-69
2023/02/23 10:10:35;;;;;;;5.33;4.30;;;19.10;49.50;;;;;;5035385;28;20933;-69
2023/02/23 10:13:18;;;;;;;5.53;4.37;;;19.10;49.50;;;;;;5035154;28;20907;-69
2023/02/23 10:15:54;;;;;;;5.17;4.67;;;19.10;49.70;;;;;;5035235;28;20894;-70
2023/02/23 10:18:41;;;;;;;7.67;5.50;;;19.10;49.70;;;;;;5035051;28;20382;-70
2023/02/23 10:21:28;;;;;;;5.37;4.80;;;19.00;49.60;;;;;;5034847;28;20453;-69
2023/02/23 10:24:04;;;;;;;7.93;5.60;;;19.00;49.70;;;;;;5035477;28;20414;-71
2023/02/23 10:27:01;;;;;;;6.07;5.03;;;19.00;49.80;;;;;;5034967;28;20461;-71
2023/02/23 10:29:35;;;;;;;9.07;5.17;;;19.00;49.90;;;;;;5034093;28;20442;-70
2023/02/23 10:32:31;;;;;;;5.07;4.37;;;19.00;49.90;;;;;;5035228;28;20778;-71
2023/02/23 10:34:58;;;;;;;5.70;5.07;;;19.00;49.80;;;;;;5034947;28;20403;-71
2023/02/23 10:37:24;;;;;;;6.63;5.10;;;19.00;49.80;;;;;;5034938;28;20421;-71
2023/02/23 10:39:52;;;;;;;5.60;5.10;;;19.00;49.80;;;;;;5034855;28;20466;-71
2023/02/23 10:42:27;;;;;;;6.57;5.70;;;19.00;49.70;;;;;;5034973;28;20411;-71
2023/02/23 10:44:53;;;;;;;5.40;4.50;;;19.00;49.80;;;;;;5034994;28;20441;-71
2023/02/23 10:47:25;;;;;;;5.60;5.10;;;19.00;49.70;;;;;;5034769;28;20919;-71
2023/02/23 10:49:53;;;;;;;5.73;4.90;;;19.00;49.70;;;;;;5034828;28;20438;-70
2023/02/23 10:52:45;;;;;;;6.40;5.40;;;19.00;49.70;;;;;;5034687;28;20786;-70
2023/02/23 10:55:37;;;;;;;6.70;4.83;;;19.00;49.70;;;;;;5034558;28;20391;-70
2023/02/23 10:58:16;;;;;;;6.57;5.17;;;19.00;49.70;;;;;;5031052;28;20429;-71
2023/02/23 11:00:58;;;;;;;6.07;4.77;;;18.90;49.70;;;;;;5016491;28;20532;-71
2023/02/23 11:03:43;;;;;;;6.60;5.43;;;18.90;49.70;;;;;;5034045;28;20407;-71
2023/02/23 11:06:34;;;;;;;6.07;4.90;;;18.90;49.70;;;;;;5034098;28;20446;-73
2023/02/23 11:09:22;;;;;;;5.50;4.93;;;18.90;49.80;;;;;;5024602;28;20790;-73
2023/02/23 11:11:57;;;;;;;6.30;4.80;;;18.90;50.10;;;;;;5034145;28;20402;-70
2023/02/23 11:14:26;;;;;;;7.20;4.90;;;18.90;50.10;;;;;;5034683;28;20886;-70
2023/02/23 11:16:54;;;;;;;6.27;5.30;;;18.90;50.10;;;;;;5033980;28;20402;-70
2023/02/23 11:19:40;;;;;;;6.50;5.30;;;18.90;50.10;;;;;;5033938;28;20438;-71
2023/02/23 11:22:07;;;;;;;5.97;5.37;;;18.90;50.10;;;;;;5034040;28;20447;-72
2023/02/23 11:24:39;;;;;;;7.10;5.77;;;18.90;50.30;;;;;;5033633;28;20433;-70
2023/02/23 11:27:15;;;;;;;7.67;6.60;;;19.00;50.50;;;;;;5033736;28;20399;-71
2023/02/23 11:29:47;;;;;;;5.67;5.17;;;19.00;50.50;;;;;;5033603;28;20421;-72
2023/02/23 11:32:17;;;;;;;7.10;5.83;;;19.00;50.50;;;;;;5033610;28;20398;-71
2023/02/23 11:34:44;;;;;;;7.40;6.13;;;19.10;50.40;;;;;;5033682;28;20398;-71
2023/02/23 11:37:16;;;;;;;7.37;5.10;;;19.10;50.40;;;;;;5032937;28;20762;-71
2023/02/23 11:40:00;;;;;;;7.67;5.20;;;19.10;50.20;;;;;;5033465;28;20767;-71
2023/02/23 11:42:34;;;;;;;7.07;6.37;;;19.10;50.20;;;;;;5033724;28;20402;-70
2023/02/23 11:45:19;;;;;;;10.17;6.27;;;19.20;50.40;;;;;;5033882;28;20848;-71
2023/02/23 11:47:48;;;;;;;6.33;5.70;;;19.10;50.50;;;;;;5034577;28;20754;-71
2023/02/23 11:50:37;;;;;;;9.10;7.20;;;19.20;50.30;;;;;;5034193;28;20430;-71
2023/02/23 11:53:04;;;;;;;8.73;6.90;;;19.20;50.30;;;;;;5023607;28;20425;-72
2023/02/23 11:55:31;;;;;;;7.50;6.03;;;19.10;50.60;;;;;;5033596;28;20407;-71
2023/02/23 11:58:19;;;;;;;8.20;5.90;;;19.10;50.50;;;;;;5033765;28;20443;-71
2023/02/23 12:00:58;;;;;;;6.73;6.03;;;19.10;50.30;;;;;;5033418;28;20445;-70
2023/02/23 12:03:26;;;;;;;10.27;5.63;;;19.10;50.30;;;;;;5033568;28;20414;-71
2023/02/23 12:05:56;;;;;;;7.87;6.17;;;19.10;50.50;;;;;;5033434;28;20442;-71
2023/02/23 12:08:52;;;;;;;7.90;6.70;;;19.10;50.60;;;;;;5033410;28;20402;-71
2023/02/23 12:11:24;;;;;;;6.37;5.67;;;19.20;50.80;;;;;;5032912;28;20482;-71
2023/02/23 12:14:09;;;;;;;6.53;6.00;;;19.20;50.70;;;;;;5033189;28;20939;-71
2023/02/23 12:16:40;;;;;;;21.63;9.27;;;19.20;50.50;;;;;;5033502;28;20883;-71
2023/02/23 12:19:23;;;;;;;22.13;9.63;;;19.20;51.00;;;;;;5033513;28;20410;-71
2023/02/23 12:21:57;;;;;;;24.47;9.73;;;19.20;51.20;;;;;;5033497;28;20740;-72
2023/02/23 12:24:50;;;;;;;19.30;10.73;;;19.20;51.80;;;;;;5033208;28;20430;-72
2023/02/23 12:27:21;;;;;;;10.40;7.50;;;19.30;51.60;;;;;;5033066;28;20402;-73
2023/02/23 12:30:02;;;;;;;13.57;8.90;;;19.30;51.60;;;;;;5032863;28;20473;-72
2023/02/23 12:32:32;;;;;;;33.63;14.80;;;19.40;51.60;;;;;;5032805;28;20460;-73
2023/02/23 12:35:06;;;;;;;24.03;13.07;;;19.40;51.80;;;;;;5033350;28;20406;-72
2023/02/23 12:37:59;;;;;;;28.13;12.73;;;19.40;52.20;;;;;;5033017;28;20437;-74
2023/02/23 12:40:32;;;;;;;29.40;14.10;;;19.40;52.20;;;;;;5033052;28;20418;-72
2023/02/23 12:42:57;;;;;;;21.00;12.80;;;19.40;52.20;;;;;;5033196;28;20751;-72
2023/02/23 12:45:42;;;;;;;58.70;22.63;;;19.40;52.00;;;;;;5015270;28;20454;-73
2023/02/23 12:48:30;;;;;;;34.67;15.20;;;19.50;52.30;;;;;;5035394;28;20195;-72
2023/02/23 12:50:58;;;;;;;27.27;14.13;;;19.50;52.60;;;;;;5019593;28;20421;-73
2023/02/23 12:53:31;;;;;;;29.47;12.87;;;19.40;52.40;;;;;;5037065;28;20394;-73
2023/02/23 12:56:00;;;;;;;32.97;15.57;;;19.50;52.30;;;;;;5036572;28;20731;-72
2023/02/23 12:58:40;;;;;;;22.67;13.40;;;19.50;52.50;;;;;;5036804;28;20907;-72
2023/02/23 13:01:36;;;;;;;25.33;13.00;;;19.50;52.40;;;;;;5036160;28;20441;-72
2023/02/23 13:04:04;;;;;;;27.73;12.60;;;19.50;52.30;;;;;;5036374;28;20537;-72
2023/02/23 13:06:46;;;;;;;26.00;13.33;;;19.50;52.00;;;;;;5036215;28;20806;-72
2023/02/23 13:09:40;;;;;;;18.97;11.90;;;19.60;52.00;;;;;;5036156;28;20695;-72
2023/02/23 13:12:27;;;;;;;19.20;12.63;;;19.60;51.80;;;;;;5028410;28;20418;-72
2023/02/23 13:15:17;;;;;;;24.13;13.13;;;19.60;51.70;;;;;;5036269;28;20493;-72
2023/02/23 13:17:47;;;;;;;22.60;11.00;;;19.60;51.60;;;;;;5036438;28;20411;-73
2023/02/23 13:20:39;;;;;;;25.57;14.27;;;19.60;51.70;;;;;;5036354;28;20790;-72
2023/02/23 13:23:26;;;;;;;27.77;15.27;;;19.60;51.90;;;;;;5027132;28;20488;-73
2023/02/23 13:25:59;;;;;;;18.73;12.10;;;19.60;51.80;;;;;;5035867;28;20438;-71
2023/02/23 13:28:43;;;;;;;25.23;14.57;;;19.60;51.70;;;;;;5036167;28;20464;-72
2023/02/23 13:31:20;;;;;;;29.20;13.63;;;19.60;51.50;;;;;;5036101;28;20453;-71
2023/02/23 13:33:48;;;;;;;20.70;13.13;;;19.60;51.60;;;;;;5036332;28;20398;-71
2023/02/23 13:36:14;;;;;;;22.77;12.07;;;19.50;51.50;;;;;;5035881;28;20445;-71
2023/02/23 13:38:43;;;;;;;20.80;11.40;;;19.50;51.60;;;;;;5035975;28;20418;-71
2023/02/23 13:41:38;;;;;;;22.30;12.40;;;19.50;51.60;;;;;;5035940;28;20542;-71
2023/02/23 13:44:23;;;;;;;29.03;13.43;;;19.60;51.70;;;;;;5018312;28;20425;-71
2023/02/23 13:47:01;;;;;;;23.50;12.40;;;19.50;51.40;;;;;;5035576;28;20863;-71
2023/02/23 13:49:46;;;;;;;23.20;12.97;;;19.50;51.30;;;;;;5035784;28;20437;-69
2023/02/23 13:52:25;;;;;;;17.67;11.53;;;19.50;51.20;;;;;;5035922;28;20406;-71
2023/02/23 13:55:01;;;;;;;19.50;11.47;;;19.50;51.20;;;;;;5035643;28;20747;-71
2023/02/23 13:57:27;;;;;;;18.60;11.43;;;19.50;51.60;;;;;;5035337;28;20418;-70
2023/02/23 13:59:53;;;;;;;29.07;13.60;;;19.50;51.60;;;;;;5034399;28;20852;-71
2023/02/23 14:02:33;;;;;;;22.47;11.80;;;19.50;51.50;;;;;;5017886;28;20781;-71
2023/02/23 14:05:18;;;;;;;16.70;10.63;;;19.50;51.70;;;;;;5035739;28;20828;-72
2023/02/23 14:07:50;;;;;;;17.80;11.50;;;19.50;51.80;;;;;;5035753;28;20406;-72
2023/02/23 14:10:24;;;;;;;16.27;11.03;;;19.40;52.00;;;;;;5035616;28;20419;-70
2023/02/23 14:13:11;;;;;;;16.87;10.10;;;19.40;51.70;;;;;;5035373;28;20402;-72
2023/02/23 14:15:37;;;;;;;17.20;10.63;;;19.40;51.70;;;;;;5017209;28;20450;-72
2023/02/23 14:18:04;;;;;;;17.67;9.80;;;19.40;51.60;;;;;;5017608;28;20449;-71
2023/02/23 14:20:43;;;;;;;20.67;10.10;;;19.40;51.90;;;;;;5035019;28;20200;-72
2023/02/23 14:23:21;;;;;;;15.00;9.50;;;19.40;51.80;;;;;;5017576;28;20426;-72
2023/02/23 14:26:28;;;;;;;17.03;10.47;;;19.40;51.70;;;;;;5035341;28;20457;-72
2023/02/23 14:29:19;;;;;;;14.80;9.77;;;19.40;51.80;;;;;;4955097;29;20828;-71